sensor_id;sensor_type;location;lat;lon;timestamp;temperature;humidity
20827;DHT22;10574;52.508;13.236;2023-04-28T00:01:28;4.70;99.90
20827;DHT22;10574;52.508;13.236;2023-04-28T00:03:55;4.70;99.90
20827;DHT22;10574;52.508;13.236;2023-04-28T00:06:24;4.60;99.90
20827;DHT22;10574;52.508;13.236;2023-04-28T00:08:52;4.70;99.90
20827;DHT22;10574;52.508;13.236;2023-04-28T00:11:19;4.70;99.90
20827;DHT22;10574;52.508;13.236;2023-04-28T00:13:47;4.70;99.90
20827;DHT22;10574;52.508;13.236;2023-04-28T00:16:14;4.60;99.90
20827;DHT22;10574;52.508;13.236;2023-04-28T00:18:42;4.60;99.90
20827;DHT22;10574;52.508;13.236;2023-04-28T00:21:09;4.50;99.90
20827;DHT22;10574;52.508;13.236;2023-04-28T00:23:37;4.40;99.90
20827;DHT22;10574;52.508;13.236;2023-04-28T00:26:05;4.40;99.90
20827;DHT22;10574;52.508;13.236;2023-04-28T00:28:32;4.50;99.90
20827;DHT22;10574;52.508;13.236;2023-04-28T00:31:00;4.50;99.90
20827;DHT22;10574;52.508;13.236;2023-04-28T00:33:28;4.50;99.90
20827;DHT22;10574;52.508;13.236;2023-04-28T00:36:00;4.60;99.90
20827;DHT22;10574;52.508;13.236;2023-04-28T00:38:27;4.60;99.90
20827;DHT22;10574;52.508;13.236;2023-04-28T00:40:55;4.60;99.90
20827;DHT22;10574;52.508;13.236;2023-04-28T00:43:23;4.60;99.90
20827;DHT22;10574;52.508;13.236;2023-04-28T00:45:51;4.60;99.90
20827;DHT22;10574;52.508;13.236;2023-04-28T00:48:18;4.70;99.90
20827;DHT22;10574;52.508;13.236;2023-04-28T00:50:47;4.70;99.90
20827;DHT22;10574;52.508;13.236;2023-04-28T00:53:14;4.70;99.90
20827;DHT22;10574;52.508;13.236;2023-04-28T00:55:42;4.70;99.90
20827;DHT22;10574;52.508;13.236;2023-04-28T00:58:09;4.70;99.90
20827;DHT22;10574;52.508;13.236;2023-04-28T01:00:37;4.70;99.90
20827;DHT22;10574;52.508;13.236;2023-04-28T01:03:06;4.60;99.90
20827;DHT22;10574;52.508;13.236;2023-04-28T01:05:34;4.60;99.90
20827;DHT22;10574;52.508;13.236;2023-04-28T01:08:02;4.70;99.90
20827;DHT22;10574;52.508;13.236;2023-04-28T01:10:30;4.60;99.90
20827;DHT22;10574;52.508;13.236;2023-04-28T01:12:58;4.70;99.90
20827;DHT22;10574;52.508;13.236;2023-04-28T01:15:26;4.70;99.90
20827;DHT22;10574;52.508;13.236;2023-04-28T01:17:54;4.70;99.90
20827;DHT22;10574;52.508;13.236;2023-04-28T01:20:22;4.80;99.90
20827;DHT22;10574;52.508;13.236;2023-04-28T01:22:50;4.80;99.90
20827;DHT22;10574;52.508;13.236;2023-04-28T01:25:18;4.70;99.90
20827;DHT22;10574;52.508;13.236;2023-04-28T01:27:45;4.70;99.90
20827;DHT22;10574;52.508;13.236;2023-04-28T01:30:13;4.70;99.90
20827;DHT22;10574;52.508;13.236;2023-04-28T01:32:41;4.60;99.90
20827;DHT22;10574;52.508;13.236;2023-04-28T01:35:09;4.60;99.90
20827;DHT22;10574;52.508;13.236;2023-04-28T01:37:36;4.60;99.90
20827;DHT22;10574;52.508;13.236;2023-04-28T01:40:04;4.50;99.90
20827;DHT22;10574;52.508;13.236;2023-04-28T01:42:32;4.50;99.90
20827;DHT22;10574;52.508;13.236;2023-04-28T01:45:00;4.50;99.90
20827;DHT22;10574;52.508;13.236;2023-04-28T01:47:28;4.50;99.90
20827;DHT22;10574;52.508;13.236;2023-04-28T01:49:56;4.50;99.90
20827;DHT22;10574;52.508;13.236;2023-04-28T01:52:24;4.40;99.90
20827;DHT22;10574;52.508;13.236;2023-04-28T01:54:53;4.40;99.90
20827;DHT22;10574;52.508;13.236;2023-04-28T01:57:21;4.40;99.90
20827;DHT22;10574;52.508;13.236;2023-04-28T01:59:49;4.40;99.90
20827;DHT22;10574;52.508;13.236;2023-04-28T02:02:17;4.40;99.90
20827;DHT22;10574;52.508;13.236;2023-04-28T02:04:44;4.40;99.90
20827;DHT22;10574;52.508;13.236;2023-04-28T02:07:12;4.40;99.90
20827;DHT22;10574;52.508;13.236;2023-04-28T02:09:39;4.30;99.90
20827;DHT22;10574;52.508;13.236;2023-04-28T02:12:07;4.30;99.90
20827;DHT22;10574;52.508;13.236;2023-04-28T02:14:35;4.30;99.90
20827;DHT22;10574;52.508;13.236;2023-04-28T02:17:02;4.30;99.90
20827;DHT22;10574;52.508;13.236;2023-04-28T02:19:30;4.30;99.90
20827;DHT22;10574;52.508;13.236;2023-04-28T02:21:58;4.40;99.90
20827;DHT22;10574;52.508;13.236;2023-04-28T02:24:26;4.30;99.90
20827;DHT22;10574;52.508;13.236;2023-04-28T02:26:53;4.30;99.90
20827;DHT22;10574;52.508;13.236;2023-04-28T02:29:21;4.30;99.90
20827;DHT22;10574;52.508;13.236;2023-04-28T02:31:50;4.30;99.90
20827;DHT22;10574;52.508;13.236;2023-04-28T02:34:17;4.30;99.90
20827;DHT22;10574;52.508;13.236;2023-04-28T02:36:45;4.30;99.90
20827;DHT22;10574;52.508;13.236;2023-04-28T02:39:13;4.30;99.90
20827;DHT22;10574;52.508;13.236;2023-04-28T02:41:41;4.30;99.90
20827;DHT22;10574;52.508;13.236;2023-04-28T02:44:08;4.20;99.90
20827;DHT22;10574;52.508;13.236;2023-04-28T02:46:36;4.20;99.90
20827;DHT22;10574;52.508;13.236;2023-04-28T02:49:04;4.30;99.90
20827;DHT22;10574;52.508;13.236;2023-04-28T02:51:31;4.30;99.90
20827;DHT22;10574;52.508;13.236;2023-04-28T02:53:59;4.30;99.90
20827;DHT22;10574;52.508;13.236;2023-04-28T02:56:26;4.40;99.90
20827;DHT22;10574;52.508;13.236;2023-04-28T02:58:55;4.40;99.90
20827;DHT22;10574;52.508;13.236;2023-04-28T03:01:23;4.50;99.90
20827;DHT22;10574;52.508;13.236;2023-04-28T03:03:50;4.60;99.90
20827;DHT22;10574;52.508;13.236;2023-04-28T03:06:18;4.60;99.90
20827;DHT22;10574;52.508;13.236;2023-04-28T03:08:46;4.70;99.90
20827;DHT22;10574;52.508;13.236;2023-04-28T03:11:13;4.80;99.90
20827;DHT22;10574;52.508;13.236;2023-04-28T03:13:41;4.80;99.90
20827;DHT22;10574;52.508;13.236;2023-04-28T03:16:09;4.90;99.90
20827;DHT22;10574;52.508;13.236;2023-04-28T03:18:36;5.00;99.90
20827;DHT22;10574;52.508;13.236;2023-04-28T03:21:04;5.00;99.90
20827;DHT22;10574;52.508;13.236;2023-04-28T03:23:32;5.00;99.90
20827;DHT22;10574;52.508;13.236;2023-04-28T03:25:59;5.10;99.90
20827;DHT22;10574;52.508;13.236;2023-04-28T03:28:27;5.10;99.90
20827;DHT22;10574;52.508;13.236;2023-04-28T03:30:54;5.20;99.90
20827;DHT22;10574;52.508;13.236;2023-04-28T03:33:23;5.20;99.90
20827;DHT22;10574;52.508;13.236;2023-04-28T03:35:50;5.20;99.90
20827;DHT22;10574;52.508;13.236;2023-04-28T03:38:19;5.20;99.90
20827;DHT22;10574;52.508;13.236;2023-04-28T03:40:47;5.20;99.90
20827;DHT22;10574;52.508;13.236;2023-04-28T03:43:15;5.30;99.90
20827;DHT22;10574;52.508;13.236;2023-04-28T03:45:43;5.30;99.90
20827;DHT22;10574;52.508;13.236;2023-04-28T03:48:10;5.30;99.90
20827;DHT22;10574;52.508;13.236;2023-04-28T03:50:38;5.30;99.90
20827;DHT22;10574;52.508;13.236;2023-04-28T03:53:07;5.30;99.90
20827;DHT22;10574;52.508;13.236;2023-04-28T03:55:35;5.30;99.90
20827;DHT22;10574;52.508;13.236;2023-04-28T03:58:02;5.40;99.90
20827;DHT22;10574;52.508;13.236;2023-04-28T04:00:30;5.40;99.90
20827;DHT22;10574;52.508;13.236;2023-04-28T04:02:57;5.40;99.90
20827;DHT22;10574;52.508;13.236;2023-04-28T04:05:25;5.40;99.90
20827;DHT22;10574;52.508;13.236;2023-04-28T04:07:53;5.40;99.90
20827;DHT22;10574;52.508;13.236;2023-04-28T04:10:20;5.50;99.90
20827;DHT22;10574;52.508;13.236;2023-04-28T04:12:48;5.50;99.90
20827;DHT22;10574;52.508;13.236;2023-04-28T04:15:16;5.50;99.90
20827;DHT22;10574;52.508;13.236;2023-04-28T04:17:43;5.60;99.90
20827;DHT22;10574;52.508;13.236;2023-04-28T04:20:11;5.60;99.90
20827;DHT22;10574;52.508;13.236;2023-04-28T04:22:39;5.70;99.90
20827;DHT22;10574;52.508;13.236;2023-04-28T04:25:07;5.80;99.90
20827;DHT22;10574;52.508;13.236;2023-04-28T04:27:34;5.80;99.90
20827;DHT22;10574;52.508;13.236;2023-04-28T04:30:02;5.90;99.90
20827;DHT22;10574;52.508;13.236;2023-04-28T04:32:29;6.00;99.90
20827;DHT22;10574;52.508;13.236;2023-04-28T04:34:57;6.10;99.90
20827;DHT22;10574;52.508;13.236;2023-04-28T04:37:25;6.20;99.90
20827;DHT22;10574;52.508;13.236;2023-04-28T04:39:52;6.30;99.90
20827;DHT22;10574;52.508;13.236;2023-04-28T04:42:20;6.40;99.90
20827;DHT22;10574;52.508;13.236;2023-04-28T04:44:48;6.40;99.90
20827;DHT22;10574;52.508;13.236;2023-04-28T04:47:16;6.50;99.90
20827;DHT22;10574;52.508;13.236;2023-04-28T04:49:44;6.60;99.90
20827;DHT22;10574;52.508;13.236;2023-04-28T04:52:12;6.70;99.90
20827;DHT22;10574;52.508;13.236;2023-04-28T04:54:39;6.90;99.90
20827;DHT22;10574;52.508;13.236;2023-04-28T04:57:07;7.30;99.90
20827;DHT22;10574;52.508;13.236;2023-04-28T04:59:35;8.00;99.90
20827;DHT22;10574;52.508;13.236;2023-04-28T05:02:03;8.60;99.90
20827;DHT22;10574;52.508;13.236;2023-04-28T05:04:30;9.30;99.90
20827;DHT22;10574;52.508;13.236;2023-04-28T05:06:58;9.70;99.90
20827;DHT22;10574;52.508;13.236;2023-04-28T05:09:26;10.30;99.90
20827;DHT22;10574;52.508;13.236;2023-04-28T05:11:55;10.60;99.90
20827;DHT22;10574;52.508;13.236;2023-04-28T05:14:23;10.70;99.90
20827;DHT22;10574;52.508;13.236;2023-04-28T05:16:51;10.80;99.90
20827;DHT22;10574;52.508;13.236;2023-04-28T05:19:19;11.00;99.90
20827;DHT22;10574;52.508;13.236;2023-04-28T05:21:46;11.00;99.90
20827;DHT22;10574;52.508;13.236;2023-04-28T05:24:14;11.20;99.90
20827;DHT22;10574;52.508;13.236;2023-04-28T05:26:42;11.50;99.90
20827;DHT22;10574;52.508;13.236;2023-04-28T05:29:10;12.10;99.90
20827;DHT22;10574;52.508;13.236;2023-04-28T05:31:37;12.40;99.90
20827;DHT22;10574;52.508;13.236;2023-04-28T05:34:05;12.60;99.90
20827;DHT22;10574;52.508;13.236;2023-04-28T05:36:32;12.30;99.90
20827;DHT22;10574;52.508;13.236;2023-04-28T05:39:00;12.20;99.90
20827;DHT22;10574;52.508;13.236;2023-04-28T05:41:28;12.40;99.90
20827;DHT22;10574;52.508;13.236;2023-04-28T05:43:56;12.00;99.90
20827;DHT22;10574;52.508;13.236;2023-04-28T05:46:23;11.80;99.90
20827;DHT22;10574;52.508;13.236;2023-04-28T05:48:51;11.60;99.90
20827;DHT22;10574;52.508;13.236;2023-04-28T05:51:18;11.70;99.90
20827;DHT22;10574;52.508;13.236;2023-04-28T05:53:47;11.80;99.90
20827;DHT22;10574;52.508;13.236;2023-04-28T05:56:15;12.00;99.90
20827;DHT22;10574;52.508;13.236;2023-04-28T05:58:43;11.90;99.90
20827;DHT22;10574;52.508;13.236;2023-04-28T06:01:12;12.10;99.90
20827;DHT22;10574;52.508;13.236;2023-04-28T06:03:40;12.30;99.90
20827;DHT22;10574;52.508;13.236;2023-04-28T06:06:11;12.80;99.90
20827;DHT22;10574;52.508;13.236;2023-04-28T06:08:39;12.50;99.90
20827;DHT22;10574;52.508;13.236;2023-04-28T06:11:07;12.40;99.90
20827;DHT22;10574;52.508;13.236;2023-04-28T06:13:35;12.20;99.90
20827;DHT22;10574;52.508;13.236;2023-04-28T06:16:03;11.90;99.90
20827;DHT22;10574;52.508;13.236;2023-04-28T06:18:31;11.30;99.90
20827;DHT22;10574;52.508;13.236;2023-04-28T06:20:58;10.50;99.90
20827;DHT22;10574;52.508;13.236;2023-04-28T06:23:26;10.10;99.90
20827;DHT22;10574;52.508;13.236;2023-04-28T06:25:54;9.90;99.90
20827;DHT22;10574;52.508;13.236;2023-04-28T06:28:22;10.00;99.90
20827;DHT22;10574;52.508;13.236;2023-04-28T06:30:49;10.00;99.90
20827;DHT22;10574;52.508;13.236;2023-04-28T06:33:17;10.00;99.90
20827;DHT22;10574;52.508;13.236;2023-04-28T06:35:45;10.20;99.90
20827;DHT22;10574;52.508;13.236;2023-04-28T06:38:12;10.20;99.90
20827;DHT22;10574;52.508;13.236;2023-04-28T06:40:40;10.10;99.90
20827;DHT22;10574;52.508;13.236;2023-04-28T06:43:08;10.00;99.90
20827;DHT22;10574;52.508;13.236;2023-04-28T06:45:35;9.90;99.90
20827;DHT22;10574;52.508;13.236;2023-04-28T06:48:03;10.00;99.90
20827;DHT22;10574;52.508;13.236;2023-04-28T06:50:31;10.10;99.90
20827;DHT22;10574;52.508;13.236;2023-04-28T06:52:59;10.10;99.90
20827;DHT22;10574;52.508;13.236;2023-04-28T06:55:26;10.10;99.90
20827;DHT22;10574;52.508;13.236;2023-04-28T06:57:54;10.50;99.90
20827;DHT22;10574;52.508;13.236;2023-04-28T07:00:22;11.00;99.90
20827;DHT22;10574;52.508;13.236;2023-04-28T07:02:50;11.20;99.90
20827;DHT22;10574;52.508;13.236;2023-04-28T07:05:17;11.60;99.90
20827;DHT22;10574;52.508;13.236;2023-04-28T07:07:45;12.00;99.90
20827;DHT22;10574;52.508;13.236;2023-04-28T07:10:13;11.90;99.90
20827;DHT22;10574;52.508;13.236;2023-04-28T07:12:41;11.80;99.90
20827;DHT22;10574;52.508;13.236;2023-04-28T07:15:09;11.70;99.90
20827;DHT22;10574;52.508;13.236;2023-04-28T07:17:37;11.80;99.90
20827;DHT22;10574;52.508;13.236;2023-04-28T07:20:06;12.10;99.90
20827;DHT22;10574;52.508;13.236;2023-04-28T07:22:33;12.20;99.90
20827;DHT22;10574;52.508;13.236;2023-04-28T07:25:01;12.00;99.90
20827;DHT22;10574;52.508;13.236;2023-04-28T07:27:30;12.00;99.90
20827;DHT22;10574;52.508;13.236;2023-04-28T07:29:57;12.10;99.90
20827;DHT22;10574;52.508;13.236;2023-04-28T07:32:25;12.40;99.90
20827;DHT22;10574;52.508;13.236;2023-04-28T07:34:53;12.30;99.90
20827;DHT22;10574;52.508;13.236;2023-04-28T07:37:21;12.30;99.30
20827;DHT22;10574;52.508;13.236;2023-04-28T07:39:48;11.90;99.90
20827;DHT22;10574;52.508;13.236;2023-04-28T07:42:16;11.80;99.90
20827;DHT22;10574;52.508;13.236;2023-04-28T07:44:44;12.00;99.90
20827;DHT22;10574;52.508;13.236;2023-04-28T07:47:12;12.20;99.80
20827;DHT22;10574;52.508;13.236;2023-04-28T07:49:40;12.50;99.90
20827;DHT22;10574;52.508;13.236;2023-04-28T07:52:07;12.60;99.90
20827;DHT22;10574;52.508;13.236;2023-04-28T07:54:35;12.60;98.40
20827;DHT22;10574;52.508;13.236;2023-04-28T07:57:03;12.50;98.90
20827;DHT22;10574;52.508;13.236;2023-04-28T07:59:32;12.70;99.70
20827;DHT22;10574;52.508;13.236;2023-04-28T08:02:00;12.80;98.10
20827;DHT22;10574;52.508;13.236;2023-04-28T08:04:28;13.00;98.10
20827;DHT22;10574;52.508;13.236;2023-04-28T08:06:57;13.20;98.60
20827;DHT22;10574;52.508;13.236;2023-04-28T08:09:25;13.40;98.10
20827;DHT22;10574;52.508;13.236;2023-04-28T08:11:52;13.80;96.20
20827;DHT22;10574;52.508;13.236;2023-04-28T08:14:20;13.70;96.20
20827;DHT22;10574;52.508;13.236;2023-04-28T08:16:48;13.60;95.20
20827;DHT22;10574;52.508;13.236;2023-04-28T08:19:16;13.20;96.00
20827;DHT22;10574;52.508;13.236;2023-04-28T08:21:43;13.20;96.50
20827;DHT22;10574;52.508;13.236;2023-04-28T08:24:11;13.10;96.10
20827;DHT22;10574;52.508;13.236;2023-04-28T08:26:39;13.10;97.10
20827;DHT22;10574;52.508;13.236;2023-04-28T08:29:06;13.30;96.60
20827;DHT22;10574;52.508;13.236;2023-04-28T08:31:34;13.70;96.30
20827;DHT22;10574;52.508;13.236;2023-04-28T08:34:02;13.70;95.80
20827;DHT22;10574;52.508;13.236;2023-04-28T08:36:29;13.30;96.00
20827;DHT22;10574;52.508;13.236;2023-04-28T08:38:59;13.20;96.60
20827;DHT22;10574;52.508;13.236;2023-04-28T08:41:31;13.30;96.60
20827;DHT22;10574;52.508;13.236;2023-04-28T08:43:59;13.30;96.80
20827;DHT22;10574;52.508;13.236;2023-04-28T08:46:27;13.20;96.70
20827;DHT22;10574;52.508;13.236;2023-04-28T08:48:58;13.60;96.50
20827;DHT22;10574;52.508;13.236;2023-04-28T08:51:37;14.00;95.50
20827;DHT22;10574;52.508;13.236;2023-04-28T08:54:07;14.10;95.40
20827;DHT22;10574;52.508;13.236;2023-04-28T08:56:35;14.10;94.00
20827;DHT22;10574;52.508;13.236;2023-04-28T08:59:04;14.10;94.40
20827;DHT22;10574;52.508;13.236;2023-04-28T09:01:31;14.10;94.10
20827;DHT22;10574;52.508;13.236;2023-04-28T09:04:00;13.70;94.60
20827;DHT22;10574;52.508;13.236;2023-04-28T09:06:33;13.90;95.70
20827;DHT22;10574;52.508;13.236;2023-04-28T09:09:21;14.00;94.10
20827;DHT22;10574;52.508;13.236;2023-04-28T09:14:25;13.70;93.10
20827;DHT22;10574;52.508;13.236;2023-04-28T09:16:54;13.80;93.30
20827;DHT22;10574;52.508;13.236;2023-04-28T09:19:22;14.20;93.10
20827;DHT22;10574;52.508;13.236;2023-04-28T09:21:56;14.50;92.70
20827;DHT22;10574;52.508;13.236;2023-04-28T09:24:38;14.60;93.10
20827;DHT22;10574;52.508;13.236;2023-04-28T09:27:12;14.90;92.30
20827;DHT22;10574;52.508;13.236;2023-04-28T09:29:52;14.80;92.10
20827;DHT22;10574;52.508;13.236;2023-04-28T09:32:13;14.70;93.30
20827;DHT22;10574;52.508;13.236;2023-04-28T09:34:49;14.90;91.80
20827;DHT22;10574;52.508;13.236;2023-04-28T09:37:18;15.10;91.70
20827;DHT22;10574;52.508;13.236;2023-04-28T09:39:53;15.20;92.00
20827;DHT22;10574;52.508;13.236;2023-04-28T09:42:37;15.30;93.20
20827;DHT22;10574;52.508;13.236;2023-04-28T09:45:09;15.30;91.40
20827;DHT22;10574;52.508;13.236;2023-04-28T09:47:40;15.30;90.50
20827;DHT22;10574;52.508;13.236;2023-04-28T09:50:09;15.00;90.80
20827;DHT22;10574;52.508;13.236;2023-04-28T09:52:40;15.00;90.60
20827;DHT22;10574;52.508;13.236;2023-04-28T09:55:08;15.10;90.40
20827;DHT22;10574;52.508;13.236;2023-04-28T09:57:38;15.40;91.00
20827;DHT22;10574;52.508;13.236;2023-04-28T10:00:07;15.80;91.20
20827;DHT22;10574;52.508;13.236;2023-04-28T10:02:36;16.20;91.10
20827;DHT22;10574;52.508;13.236;2023-04-28T10:05:05;16.00;89.60
20827;DHT22;10574;52.508;13.236;2023-04-28T10:07:36;15.90;89.80
20827;DHT22;10574;52.508;13.236;2023-04-28T10:10:04;15.60;89.00
20827;DHT22;10574;52.508;13.236;2023-04-28T10:12:33;15.70;90.00
20827;DHT22;10574;52.508;13.236;2023-04-28T10:15:03;16.00;90.90
20827;DHT22;10574;52.508;13.236;2023-04-28T10:17:30;16.10;89.50
20827;DHT22;10574;52.508;13.236;2023-04-28T10:19:59;16.20;90.50
20827;DHT22;10574;52.508;13.236;2023-04-28T10:25:36;16.30;88.20
20827;DHT22;10574;52.508;13.236;2023-04-28T10:28:06;15.60;88.10
20827;DHT22;10574;52.508;13.236;2023-04-28T10:30:35;15.20;89.60
20827;DHT22;10574;52.508;13.236;2023-04-28T10:35:41;15.80;89.20
20827;DHT22;10574;52.508;13.236;2023-04-28T10:38:13;16.10;88.60
20827;DHT22;10574;52.508;13.236;2023-04-28T10:40:42;16.40;87.20
20827;DHT22;10574;52.508;13.236;2023-04-28T10:43:13;16.30;88.60
20827;DHT22;10574;52.508;13.236;2023-04-28T10:45:58;16.00;88.10
20827;DHT22;10574;52.508;13.236;2023-04-28T10:56:23;16.00;88.10
20827;DHT22;10574;52.508;13.236;2023-04-28T10:58:59;15.70;88.10
20827;DHT22;10574;52.508;13.236;2023-04-28T11:01:28;15.80;89.40
20827;DHT22;10574;52.508;13.236;2023-04-28T11:03:58;16.00;89.70
20827;DHT22;10574;52.508;13.236;2023-04-28T11:06:30;16.20;87.50
20827;DHT22;10574;52.508;13.236;2023-04-28T11:09:00;16.40;86.10
20827;DHT22;10574;52.508;13.236;2023-04-28T11:11:29;16.50;86.90
20827;DHT22;10574;52.508;13.236;2023-04-28T11:16:56;16.70;86.70
20827;DHT22;10574;52.508;13.236;2023-04-28T11:19:30;16.80;85.00
20827;DHT22;10574;52.508;13.236;2023-04-28T11:22:00;17.00;84.30
20827;DHT22;10574;52.508;13.236;2023-04-28T11:24:29;16.70;83.10
20827;DHT22;10574;52.508;13.236;2023-04-28T11:26:59;16.50;84.90
20827;DHT22;10574;52.508;13.236;2023-04-28T11:29:32;16.70;87.40
20827;DHT22;10574;52.508;13.236;2023-04-28T11:32:01;17.00;86.00
20827;DHT22;10574;52.508;13.236;2023-04-28T11:34:29;17.10;85.60
20827;DHT22;10574;52.508;13.236;2023-04-28T11:36:56;17.30;84.80
20827;DHT22;10574;52.508;13.236;2023-04-28T11:39:28;17.40;82.70
20827;DHT22;10574;52.508;13.236;2023-04-28T11:41:57;16.70;83.20
20827;DHT22;10574;52.508;13.236;2023-04-28T11:44:28;16.10;86.20
20827;DHT22;10574;52.508;13.236;2023-04-28T11:46:57;16.10;86.60
20827;DHT22;10574;52.508;13.236;2023-04-28T11:49:42;16.10;87.60
20827;DHT22;10574;52.508;13.236;2023-04-28T11:52:10;16.40;86.40
20827;DHT22;10574;52.508;13.236;2023-04-28T11:54:39;16.80;88.20
20827;DHT22;10574;52.508;13.236;2023-04-28T11:57:19;17.20;87.00
20827;DHT22;10574;52.508;13.236;2023-04-28T11:59:47;17.60;86.00
20827;DHT22;10574;52.508;13.236;2023-04-28T12:02:15;17.60;84.70
20827;DHT22;10574;52.508;13.236;2023-04-28T12:04:43;17.90;85.80
20827;DHT22;10574;52.508;13.236;2023-04-28T12:07:13;17.70;83.90
20827;DHT22;10574;52.508;13.236;2023-04-28T12:09:42;17.50;85.50
20827;DHT22;10574;52.508;13.236;2023-04-28T12:12:12;17.50;84.80
20827;DHT22;10574;52.508;13.236;2023-04-28T12:14:55;17.60;87.50
20827;DHT22;10574;52.508;13.236;2023-04-28T12:17:30;17.60;85.80
20827;DHT22;10574;52.508;13.236;2023-04-28T12:20:02;17.40;85.60
20827;DHT22;10574;52.508;13.236;2023-04-28T12:22:30;17.30;85.00
20827;DHT22;10574;52.508;13.236;2023-04-28T12:25:08;17.10;85.20
20827;DHT22;10574;52.508;13.236;2023-04-28T12:27:38;16.90;87.50
20827;DHT22;10574;52.508;13.236;2023-04-28T12:32:51;17.30;85.00
20827;DHT22;10574;52.508;13.236;2023-04-28T12:35:21;17.00;86.50
20827;DHT22;10574;52.508;13.236;2023-04-28T12:37:48;17.00;87.10
20827;DHT22;10574;52.508;13.236;2023-04-28T12:40:16;16.70;86.80
20827;DHT22;10574;52.508;13.236;2023-04-28T12:42:44;16.70;90.10
20827;DHT22;10574;52.508;13.236;2023-04-28T12:45:12;16.90;87.10
20827;DHT22;10574;52.508;13.236;2023-04-28T12:47:39;16.70;87.00
20827;DHT22;10574;52.508;13.236;2023-04-28T12:50:08;16.80;89.50
20827;DHT22;10574;52.508;13.236;2023-04-28T12:52:35;17.00;89.30
20827;DHT22;10574;52.508;13.236;2023-04-28T12:55:04;17.10;87.40
20827;DHT22;10574;52.508;13.236;2023-04-28T12:57:32;17.20;87.20
20827;DHT22;10574;52.508;13.236;2023-04-28T13:00:01;17.00;87.00
20827;DHT22;10574;52.508;13.236;2023-04-28T13:02:29;17.00;87.90
20827;DHT22;10574;52.508;13.236;2023-04-28T13:04:57;17.40;88.50
20827;DHT22;10574;52.508;13.236;2023-04-28T13:07:24;17.50;86.60
20827;DHT22;10574;52.508;13.236;2023-04-28T13:09:54;17.60;87.00
20827;DHT22;10574;52.508;13.236;2023-04-28T13:12:22;17.70;87.20
20827;DHT22;10574;52.508;13.236;2023-04-28T13:14:50;17.70;84.70
20827;DHT22;10574;52.508;13.236;2023-04-28T13:17:17;17.60;86.30
20827;DHT22;10574;52.508;13.236;2023-04-28T13:19:45;17.50;87.00
20827;DHT22;10574;52.508;13.236;2023-04-28T13:22:13;17.60;87.10
20827;DHT22;10574;52.508;13.236;2023-04-28T13:24:41;17.70;87.80
20827;DHT22;10574;52.508;13.236;2023-04-28T13:27:09;17.70;87.00
20827;DHT22;10574;52.508;13.236;2023-04-28T13:29:36;17.60;86.10
20827;DHT22;10574;52.508;13.236;2023-04-28T13:32:07;17.60;87.10
20827;DHT22;10574;52.508;13.236;2023-04-28T13:34:35;17.50;85.60
20827;DHT22;10574;52.508;13.236;2023-04-28T13:37:05;17.50;89.50
20827;DHT22;10574;52.508;13.236;2023-04-28T13:39:33;17.60;89.60
20827;DHT22;10574;52.508;13.236;2023-04-28T13:42:01;17.30;87.10
20827;DHT22;10574;52.508;13.236;2023-04-28T13:44:29;17.30;87.90
20827;DHT22;10574;52.508;13.236;2023-04-28T13:46:56;17.20;89.00
20827;DHT22;10574;52.508;13.236;2023-04-28T13:49:24;17.40;89.40
20827;DHT22;10574;52.508;13.236;2023-04-28T13:51:52;17.40;90.00
20827;DHT22;10574;52.508;13.236;2023-04-28T13:54:20;17.50;90.30
20827;DHT22;10574;52.508;13.236;2023-04-28T13:56:47;17.40;90.70
20827;DHT22;10574;52.508;13.236;2023-04-28T13:59:15;17.10;90.80
20827;DHT22;10574;52.508;13.236;2023-04-28T14:01:43;17.00;91.30
20827;DHT22;10574;52.508;13.236;2023-04-28T14:04:11;16.90;91.70
20827;DHT22;10574;52.508;13.236;2023-04-28T14:06:38;16.90;92.20
20827;DHT22;10574;52.508;13.236;2023-04-28T14:09:06;17.00;91.60
20827;DHT22;10574;52.508;13.236;2023-04-28T14:11:34;17.00;91.70
20827;DHT22;10574;52.508;13.236;2023-04-28T14:14:02;16.70;92.50
20827;DHT22;10574;52.508;13.236;2023-04-28T14:16:30;16.50;93.00
20827;DHT22;10574;52.508;13.236;2023-04-28T14:18:58;16.50;93.20
20827;DHT22;10574;52.508;13.236;2023-04-28T14:21:26;16.50;93.50
20827;DHT22;10574;52.508;13.236;2023-04-28T14:23:53;16.30;93.50
20827;DHT22;10574;52.508;13.236;2023-04-28T14:26:21;16.40;93.90
20827;DHT22;10574;52.508;13.236;2023-04-28T14:28:49;16.20;93.60
20827;DHT22;10574;52.508;13.236;2023-04-28T14:31:17;16.00;94.40
20827;DHT22;10574;52.508;13.236;2023-04-28T14:33:45;16.10;94.90
20827;DHT22;10574;52.508;13.236;2023-04-28T14:36:13;16.00;95.70
20827;DHT22;10574;52.508;13.236;2023-04-28T14:38:40;16.00;95.70
20827;DHT22;10574;52.508;13.236;2023-04-28T14:41:08;16.00;95.50
20827;DHT22;10574;52.508;13.236;2023-04-28T14:43:37;16.00;95.30
20827;DHT22;10574;52.508;13.236;2023-04-28T14:46:04;15.90;95.90
20827;DHT22;10574;52.508;13.236;2023-04-28T14:48:32;15.90;95.90
20827;DHT22;10574;52.508;13.236;2023-04-28T14:51:00;15.90;95.80
20827;DHT22;10574;52.508;13.236;2023-04-28T14:53:28;15.90;96.10
20827;DHT22;10574;52.508;13.236;2023-04-28T14:55:55;15.80;96.80
20827;DHT22;10574;52.508;13.236;2023-04-28T14:58:24;15.80;97.40
20827;DHT22;10574;52.508;13.236;2023-04-28T15:00:52;16.00;98.20
20827;DHT22;10574;52.508;13.236;2023-04-28T15:03:20;16.10;97.40
20827;DHT22;10574;52.508;13.236;2023-04-28T15:05:47;16.20;98.10
20827;DHT22;10574;52.508;13.236;2023-04-28T15:08:15;16.10;98.10
20827;DHT22;10574;52.508;13.236;2023-04-28T15:10:43;15.90;98.20
20827;DHT22;10574;52.508;13.236;2023-04-28T15:13:10;15.90;99.80
20827;DHT22;10574;52.508;13.236;2023-04-28T15:15:38;16.00;98.90
20827;DHT22;10574;52.508;13.236;2023-04-28T15:18:06;15.90;99.80
20827;DHT22;10574;52.508;13.236;2023-04-28T15:20:39;15.80;99.70
20827;DHT22;10574;52.508;13.236;2023-04-28T15:23:08;15.90;99.90
20827;DHT22;10574;52.508;13.236;2023-04-28T15:25:52;15.70;99.90
20827;DHT22;10574;52.508;13.236;2023-04-28T15:28:17;15.70;99.90
20827;DHT22;10574;52.508;13.236;2023-04-28T15:30:45;15.70;99.90
20827;DHT22;10574;52.508;13.236;2023-04-28T15:33:12;15.70;99.90
20827;DHT22;10574;52.508;13.236;2023-04-28T15:35:42;15.50;99.90
20827;DHT22;10574;52.508;13.236;2023-04-28T15:38:10;15.20;99.90
20827;DHT22;10574;52.508;13.236;2023-04-28T15:40:39;15.30;99.90
20827;DHT22;10574;52.508;13.236;2023-04-28T15:43:07;15.20;99.90
20827;DHT22;10574;52.508;13.236;2023-04-28T15:45:35;15.30;99.90
20827;DHT22;10574;52.508;13.236;2023-04-28T15:48:05;15.40;99.90
20827;DHT22;10574;52.508;13.236;2023-04-28T15:50:35;15.40;99.90